Time,TemperatureF,DewpointF,PressureIn,WindDirection,WindDirectionDegrees,WindSpeedMPH,WindSpeedGustMPH,Humidity,HourlyPrecipIn,Conditions,Clouds,dailyrainin,SoftwareType,DateUTC
2013-01-15 00:03:00,18.2,13.7,30.41,SW,235,3.0,4.0,82,0.00,,,0.01,WUHU216DAVISVP2,2013-01-15 06:03:00,
2013-01-15 00:08:00,18.2,13.7,30.41,SW,235,1.0,4.0,82,0.00,,,0.00,WUHU216DAVISVP2,2013-01-15 06:08:00,
2013-01-15 00:13:00,18.2,13.6,30.41,SW,235,0.0,4.0,82,0.00,,,0.00,WUHU216DAVISVP2,2013-01-15 06:13:00,
2013-01-15 00:18:00,18.2,13.4,30.41,SW,235,1.0,5.0,81,0.00,,,0.00,WUHU216DAVISVP2,2013-01-15 06:18:00,
2013-01-15 00:23:00,18.1,13.5,30.41,SW,235,2.0,5.0,82,0.00,,,0.00,WUHU216DAVISVP2,2013-01-15 06:23:00,
2013-01-15 00:28:00,18.0,13.4,30.41,SW,235,2.0,5.0,82,0.00,,,0.00,WUHU216DAVISVP2,2013-01-15 06:28:00,
2013-01-15 00:33:00,18.0,13.4,30.40,SW,235,5.0,7.0,82,0.00,,,0.00,WUHU216DAVISVP2,2013-01-15 06:33:00,
2013-01-15 00:38:00,18.0,13.4,30.40,SW,235,6.0,8.0,82,0.00,,,0.00,WUHU216DAVISVP2,2013-01-15 06:38:00,
2013-01-15 00:43:00,18.1,13.5,30.40,WSW,246,7.0,8.0,82,0.00,,,0.00,WUHU216DAVISVP2,2013-01-15 06:43:00,
2013-01-15 00:48:00,18.1,13.5,30.40,WSW,247,5.0,8.0,82,0.00,,,0.00,WUHU216DAVISVP2,2013-01-15 06:48:00,
2013-01-15 00:53:00,18.2,13.6,30.40,WSW,247,6.0,8.0,82,0.00,,,0.00,WUHU216DAVISVP2,2013-01-15 06:53:00,
2013-01-15 00:58:00,18.1,13.5,30.39,WSW,248,4.0,8.0,82,0.00,,,0.00,WUHU216DAVISVP2,2013-01-15 06:58:00,
2013-01-15 01:03:00,18.1,13.5,30.39,West,268,5.0,8.0,82,0.00,,,0.00,WUHU216DAVISVP2,2013-01-15 07:03:00,
2013-01-15 01:08:00,18.1,13.5,30.39,WSW,255,6.0,10.0,82,0.00,,,0.00,WUHU216DAVISVP2,2013-01-15 07:08:00,
2013-01-15 01:13:00,18.0,13.4,30.38,West,262,5.0,10.0,82,0.00,,,0.00,WUHU216DAVISVP2,2013-01-15 07:13:00,
2013-01-15 01:18:00,18.1,13.5,30.38,West,261,5.0,10.0,82,0.00,,,0.00,WUHU216DAVISVP2,2013-01-15 07:18:00,
2013-01-15 01:23:00,18.0,13.4,30.38,West,264,6.0,10.0,82,0.00,,,0.00,WUHU216DAVISVP2,2013-01-15 07:23:00,
2013-01-15 01:28:00,18.0,13.4,30.39,West,271,4.0,8.0,82,0.00,,,0.00,WUHU216DAVISVP2,2013-01-15 07:28:00,
2013-01-15 01:33:00,17.9,13.3,30.38,WSW,258,7.0,9.0,82,0.00,,,0.00,WUHU216DAVISVP2,2013-01-15 07:33:00,
2013-01-15 01:38:00,17.9,13.3,30.38,West,259,4.0,10.0,82,0.00,,,0.00,WUHU216DAVISVP2,2013-01-15 07:38:00,
2013-01-15 01:43:00,17.8,13.2,30.39,West,266,4.0,10.0,82,0.00,,,0.00,WUHU216DAVISVP2,2013-01-15 07:43:00,
2013-01-15 01:48:00,17.8,13.3,30.39,West,262,2.0,10.0,82,0.00,,,0.00,WUHU216DAVISVP2,2013-01-15 07:48:00,
2013-01-15 01:53:00,17.8,13.3,30.39,West,262,3.0,8.0,82,0.00,,,0.00,WUHU216DAVISVP2,2013-01-15 07:53:00,
2013-01-15 01:58:00,17.7,13.2,30.39,West,260,4.0,8.0,82,0.00,,,0.00,WUHU216DAVISVP2,2013-01-15 07:58:00,
2013-01-15 02:03:00,17.8,13.2,30.39,West,260,3.0,8.0,82,0.00,,,0.00,WUHU216DAVISVP2,2013-01-15 08:03:00,
2013-01-15 02:08:00,17.7,13.1,30.39,West,261,5.0,8.0,82,0.00,,,0.00,WUHU216DAVISVP2,2013-01-15 08:08:00,
2013-01-15 02:13:00,17.6,13.3,30.39,West,261,4.0,7.0,83,0.00,,,0.00,WUHU216DAVISVP2,2013-01-15 08:13:00,
2013-01-15 02:18:00,17.5,15.0,30.39,West,261,4.0,6.0,90,0.00,,,0.00,WUHU216DAVISVP2,2013-01-15 08:18:00,
2013-01-15 02:23:00,17.3,13.0,30.38,West,261,2.0,6.0,83,0.00,,,0.00,WUHU216DAVISVP2,2013-01-15 08:23:00,
2013-01-15 02:28:00,17.2,12.9,30.38,West,261,3.0,6.0,83,0.00,,,0.00,WUHU216DAVISVP2,2013-01-15 08:28:00,
2013-01-15 02:33:00,17.1,12.8,30.38,West,262,5.0,7.0,83,0.00,,,0.00,WUHU216DAVISVP2,2013-01-15 08:33:00,
2013-01-15 02:38:00,17.1,13.1,30.38,West,262,3.0,7.0,84,0.00,,,0.00,WUHU216DAVISVP2,2013-01-15 08:38:00,
2013-01-15 02:43:00,17.1,13.1,30.38,West,263,2.0,8.0,84,0.00,,,0.00,WUHU216DAVISVP2,2013-01-15 08:43:00,
2013-01-15 02:48:00,17.1,13.0,30.38,West,263,3.0,8.0,84,0.00,,,0.00,WUHU216DAVISVP2,2013-01-15 08:48:00,
2013-01-15 02:53:00,17.1,13.1,30.38,West,263,1.0,8.0,84,0.00,,,0.00,WUHU216DAVISVP2,2013-01-15 08:53:00,
2013-01-15 02:58:00,17.1,13.1,30.39,West,263,1.0,8.0,84,0.00,,,0.00,WUHU216DAVISVP2,2013-01-15 08:58:00,
2013-01-15 03:03:00,17.0,13.0,30.38,West,263,6.0,6.0,84,0.00,,,0.00,WUHU216DAVISVP2,2013-01-15 09:03:00,
2013-01-15 07:49:00,19.8,14.1,30.34,West,266,0.0,6.0,78,0.00,,,0.00,WUHU216DAVISVP2,2013-01-15 13:49:00,
2013-01-15 07:54:00,20.2,14.7,30.33,West,266,4.0,6.0,79,0.00,,,0.00,WUHU216DAVISVP2,2013-01-15 13:54:00,
2013-01-15 07:59:00,20.3,14.5,30.33,West,268,5.0,8.0,78,0.00,,,0.00,WUHU216DAVISVP2,2013-01-15 13:59:00,
2013-01-15 08:04:00,20.1,14.3,30.34,WNW,290,6.0,8.0,78,0.00,,,0.00,WUHU216DAVISVP2,2013-01-15 14:04:00,
2013-01-15 08:09:00,19.8,14.3,30.33,WNW,287,6.0,8.0,79,0.00,,,0.00,WUHU216DAVISVP2,2013-01-15 14:09:00,
2013-01-15 08:14:00,19.6,14.2,30.34,NW,309,4.0,9.0,79,0.00,,,0.00,WUHU216DAVISVP2,2013-01-15 14:14:00,
2013-01-15 08:19:00,19.4,13.9,30.34,WNW,287,3.0,9.0,79,0.00,,,0.00,WUHU216DAVISVP2,2013-01-15 14:19:00,
2013-01-15 08:24:00,19.3,14.2,30.35,WNW,287,0.0,9.0,80,0.00,,,0.00,WUHU216DAVISVP2,2013-01-15 14:24:00,
2013-01-15 08:29:00,19.2,13.7,30.35,WNW,287,6.0,8.0,79,0.00,,,0.00,WUHU216DAVISVP2,2013-01-15 14:29:00,
2013-01-15 08:34:00,19.2,14.1,30.35,West,279,4.0,10.0,80,0.00,,,0.00,WUHU216DAVISVP2,2013-01-15 14:34:00,
2013-01-15 08:39:00,19.2,14.0,30.35,WNW,285,5.0,10.0,80,0.00,,,0.00,WUHU216DAVISVP2,2013-01-15 14:39:00,
2013-01-15 08:44:00,19.0,13.6,30.35,West,277,3.0,10.0,79,0.00,,,0.00,WUHU216DAVISVP2,2013-01-15 14:44:00,
2013-01-15 08:49:00,19.1,13.9,30.35,West,279,5.0,9.0,80,0.00,,,0.00,WUHU216DAVISVP2,2013-01-15 14:49:00,
2013-01-15 08:54:00,18.9,13.5,30.36,WNW,287,5.0,8.0,79,0.00,,,0.00,WUHU216DAVISVP2,2013-01-15 14:54:00,
2013-01-15 08:59:00,18.9,13.4,30.37,West,281,1.0,8.0,79,0.00,,,0.00,WUHU216DAVISVP2,2013-01-15 14:59:00,
2013-01-15 09:04:00,18.8,13.4,30.36,West,279,6.0,7.0,79,0.00,,,0.00,WUHU216DAVISVP2,2013-01-15 15:04:00,
2013-01-15 09:09:00,18.8,13.0,30.37,WNW,282,6.0,8.0,78,0.00,,,0.00,WUHU216DAVISVP2,2013-01-15 15:09:00,
2013-01-15 09:14:00,18.8,13.1,30.38,WNW,284,1.0,8.0,78,0.00,,,0.00,WUHU216DAVISVP2,2013-01-15 15:14:00,
2013-01-15 09:19:00,18.9,12.9,30.38,WNW,284,1.0,8.0,77,0.00,,,0.00,WUHU216DAVISVP2,2013-01-15 15:19:00,
2013-01-15 09:24:00,18.8,12.8,30.38,WNW,284,1.0,8.0,77,0.00,,,0.00,WUHU216DAVISVP2,2013-01-15 15:24:00,
2013-01-15 09:29:00,18.8,12.5,30.38,WNW,284,2.0,6.0,76,0.00,,,0.00,WUHU216DAVISVP2,2013-01-15 15:29:00,
2013-01-15 09:34:00,18.8,12.6,30.38,WNW,283,3.0,5.0,76,0.00,,,0.00,WUHU216DAVISVP2,2013-01-15 15:34:00,
2013-01-15 09:39:00,19.0,12.7,30.38,WNW,283,3.0,5.0,76,0.00,,,0.00,WUHU216DAVISVP2,2013-01-15 15:39:00,
2013-01-15 09:44:00,19.0,12.4,30.39,WNW,283,1.0,5.0,75,0.00,,,0.00,WUHU216DAVISVP2,2013-01-15 15:44:00,
2013-01-15 09:49:00,18.9,12.1,30.38,WNW,283,0.0,5.0,74,0.00,,,0.00,WUHU216DAVISVP2,2013-01-15 15:49:00,
2013-01-15 09:54:00,19.1,12.5,30.38,WNW,283,1.0,5.0,75,0.00,,,0.00,WUHU216DAVISVP2,2013-01-15 15:54:00,
2013-01-15 09:59:00,19.2,12.3,30.38,West,278,3.0,6.0,74,0.00,,,0.00,WUHU216DAVISVP2,2013-01-15 15:59:00,
2013-01-15 10:04:00,19.3,12.1,30.38,WSW,258,3.0,7.0,73,0.00,,,0.00,WUHU216DAVISVP2,2013-01-15 16:04:00,
2013-01-15 10:09:00,19.3,12.4,30.37,WSW,258,2.0,7.0,74,0.00,,,0.00,WUHU216DAVISVP2,2013-01-15 16:09:00,
2013-01-15 10:14:00,19.4,12.2,30.36,SW,226,6.0,7.0,73,0.00,,,0.00,WUHU216DAVISVP2,2013-01-15 16:14:00,
2013-01-15 10:19:00,19.4,11.9,30.36,WSW,247,5.0,7.0,72,0.00,,,0.00,WUHU216DAVISVP2,2013-01-15 16:19:00,
2013-01-15 10:24:00,19.5,11.3,30.36,WSW,246,7.0,9.0,70,0.00,,,0.00,WUHU216DAVISVP2,2013-01-15 16:24:00,
2013-01-15 10:29:00,19.7,11.2,30.35,WSW,249,6.0,9.0,69,0.00,,,0.00,WUHU216DAVISVP2,2013-01-15 16:29:00,
2013-01-15 10:34:00,19.7,10.9,30.34,WSW,237,3.0,10.0,68,0.00,,,0.00,WUHU216DAVISVP2,2013-01-15 16:34:00,
2013-01-15 10:39:00,19.7,10.6,30.35,WSW,237,3.0,10.0,67,0.00,,,0.00,WUHU216DAVISVP2,2013-01-15 16:39:00,
2013-01-15 10:44:00,19.7,10.3,30.35,WSW,255,5.0,10.0,66,0.00,,,0.00,WUHU216DAVISVP2,2013-01-15 16:44:00,
2013-01-15 10:49:00,19.8,10.7,30.35,WSW,253,4.0,10.0,67,0.00,,,0.00,WUHU216DAVISVP2,2013-01-15 16:49:00,
2013-01-15 10:54:00,20.0,10.6,30.34,WSW,249,4.0,8.0,66,0.00,,,0.00,WUHU216DAVISVP2,2013-01-15 16:54:00,
2013-01-15 10:59:00,20.1,10.2,30.34,WSW,249,4.0,8.0,65,0.00,,,0.00,WUHU216DAVISVP2,2013-01-15 16:59:00,
2013-01-15 11:04:00,20.2,10.0,30.33,WSW,249,4.0,7.0,64,0.00,,,0.00,WUHU216DAVISVP2,2013-01-15 17:04:00,
2013-01-15 11:09:00,20.3,10.4,30.33,WSW,249,5.0,7.0,65,0.00,,,0.00,WUHU216DAVISVP2,2013-01-15 17:09:00,
2013-01-15 11:14:00,20.4,9.8,30.33,WSW,249,6.0,6.0,63,0.00,,,0.00,WUHU216DAVISVP2,2013-01-15 17:14:00,
2013-01-15 11:19:00,20.5,9.6,30.33,WSW,253,1.0,7.0,62,0.00,,,0.00,WUHU216DAVISVP2,2013-01-15 17:19:00,
2013-01-15 11:24:00,20.7,9.8,30.32,WSW,253,5.0,7.0,62,0.00,,,0.00,WUHU216DAVISVP2,2013-01-15 17:24:00,
2013-01-15 11:29:00,20.8,9.8,30.33,WSW,254,3.0,7.0,62,0.00,,,0.00,WUHU216DAVISVP2,2013-01-15 17:29:00,
2013-01-15 11:34:00,20.8,9.9,30.33,WSW,254,3.0,7.0,62,0.00,,,0.00,WUHU216DAVISVP2,2013-01-15 17:34:00,
2013-01-15 11:39:00,21.0,9.7,30.33,WSW,254,2.0,7.0,61,0.00,,,0.00,WUHU216DAVISVP2,2013-01-15 17:39:00,
2013-01-15 11:44:00,21.3,10.3,30.32,WSW,254,3.0,6.0,62,0.00,,,0.00,WUHU216DAVISVP2,2013-01-15 17:44:00,
2013-01-15 11:49:00,21.6,10.3,30.31,West,272,5.0,7.0,61,0.00,,,0.00,WUHU216DAVISVP2,2013-01-15 17:49:00,
2013-01-15 11:54:00,21.8,10.1,30.31,West,275,4.0,9.0,60,0.00,,,0.00,WUHU216DAVISVP2,2013-01-15 17:54:00,
2013-01-15 11:59:00,22.2,10.8,30.31,WNW,292,4.0,9.0,61,0.00,,,0.00,WUHU216DAVISVP2,2013-01-15 17:59:00,
2013-01-15 12:04:00,22.7,10.9,30.31,WNW,295,4.0,9.0,60,0.00,,,0.00,WUHU216DAVISVP2,2013-01-15 18:04:00,
2013-01-15 12:09:00,22.6,10.1,30.31,WNW,289,2.0,9.0,58,0.00,,,0.00,WUHU216DAVISVP2,2013-01-15 18:09:00,
2013-01-15 12:14:00,22.9,10.3,30.30,WNW,289,1.0,6.0,58,0.00,,,0.00,WUHU216DAVISVP2,2013-01-15 18:14:00,
2013-01-15 12:19:00,23.1,8.9,30.30,West,266,6.0,9.0,54,0.00,,,0.00,WUHU216DAVISVP2,2013-01-15 18:19:00,
2013-01-15 12:24:00,23.2,9.0,30.29,WNW,290,5.0,9.0,54,0.00,,,0.00,WUHU216DAVISVP2,2013-01-15 18:24:00,
2013-01-15 12:29:00,23.7,9.4,30.29,West,261,8.0,9.0,54,0.00,,,0.00,WUHU216DAVISVP2,2013-01-15 18:29:00,
2013-01-15 12:34:00,23.9,9.2,30.28,West,266,5.0,9.0,53,0.00,,,0.00,WUHU216DAVISVP2,2013-01-15 18:34:00,
2013-01-15 12:39:00,24.0,8.5,30.28,West,280,4.0,9.0,51,0.00,,,0.00,WUHU216DAVISVP2,2013-01-15 18:39:00,
2013-01-15 12:44:00,24.2,7.7,30.27,WNW,294,6.0,9.0,49,0.00,,,0.00,WUHU216DAVISVP2,2013-01-15 18:44:00,
2013-01-15 12:49:00,24.4,7.9,30.27,WNW,295,5.0,9.0,49,0.00,,,0.00,WUHU216DAVISVP2,2013-01-15 18:49:00,
2013-01-15 12:54:00,24.6,9.0,30.27,WNW,289,5.0,9.0,51,0.00,,,0.00,WUHU216DAVISVP2,2013-01-15 18:54:00,
2013-01-15 12:59:00,24.8,9.2,30.26,WNW,284,5.0,9.0,51,0.00,,,0.00,WUHU216DAVISVP2,2013-01-15 18:59:00,
2013-01-15 13:04:00,24.9,9.3,30.26,WSW,256,4.0,9.0,51,0.00,,,0.00,WUHU216DAVISVP2,2013-01-15 19:04:00,
2013-01-15 13:09:00,25.0,8.9,30.26,WNW,294,4.0,9.0,50,0.00,,,0.00,WUHU216DAVISVP2,2013-01-15 19:09:00,
2013-01-15 13:14:00,25.2,9.6,30.26,West,271,4.0,9.0,51,0.00,,,0.00,WUHU216DAVISVP2,2013-01-15 19:14:00,
2013-01-15 13:19:00,25.2,9.1,30.25,WNW,284,7.0,10.0,50,0.00,,,0.00,WUHU216DAVISVP2,2013-01-15 19:19:00,
2013-01-15 13:24:00,25.2,9.6,30.25,West,281,4.0,10.0,51,0.00,,,0.00,WUHU216DAVISVP2,2013-01-15 19:24:00,
2013-01-15 13:29:00,25.3,9.6,30.25,West,264,7.0,11.0,51,0.00,,,0.00,WUHU216DAVISVP2,2013-01-15 19:29:00,
2013-01-15 13:34:00,25.2,9.1,30.25,West,275,7.0,11.0,50,0.00,,,0.00,WUHU216DAVISVP2,2013-01-15 19:34:00,
2013-01-15 13:39:00,25.3,8.7,30.25,West,270,4.0,13.0,49,0.00,,,0.00,WUHU216DAVISVP2,2013-01-15 19:39:00,
2013-01-15 13:44:00,25.4,9.2,30.25,West,260,6.0,13.0,50,0.00,,,0.00,WUHU216DAVISVP2,2013-01-15 19:44:00,
2013-01-15 13:49:00,25.5,8.9,30.25,West,277,6.0,13.0,49,0.00,,,0.00,WUHU216DAVISVP2,2013-01-15 19:49:00,
2013-01-15 13:54:00,25.7,9.6,30.24,WSW,247,7.0,13.0,50,0.00,,,0.00,WUHU216DAVISVP2,2013-01-15 19:54:00,
2013-01-15 13:59:00,25.8,9.2,30.24,WNW,289,6.0,9.0,49,0.00,,,0.00,WUHU216DAVISVP2,2013-01-15 19:59:00,
2013-01-15 14:04:00,26.0,8.9,30.24,West,264,5.0,9.0,48,0.00,,,0.00,WUHU216DAVISVP2,2013-01-15 20:04:00,
2013-01-15 14:09:00,26.2,9.1,30.24,WSW,245,6.0,9.0,48,0.00,,,0.00,WUHU216DAVISVP2,2013-01-15 20:09:00,
2013-01-15 14:14:00,26.2,8.1,30.24,WSW,258,8.0,10.0,46,0.00,,,0.00,WUHU216DAVISVP2,2013-01-15 20:14:00,
2013-01-15 14:19:00,26.2,8.1,30.24,West,266,4.0,10.0,46,0.00,,,0.00,WUHU216DAVISVP2,2013-01-15 20:19:00,
2013-01-15 14:24:00,26.4,8.8,30.23,West,269,7.0,10.0,47,0.00,,,0.00,WUHU216DAVISVP2,2013-01-15 20:24:00,
2013-01-15 14:29:00,26.7,9.1,30.23,WNW,283,0.0,10.0,47,0.00,,,0.00,WUHU216DAVISVP2,2013-01-15 20:29:00,
2013-01-15 14:34:00,27.2,9.0,30.23,West,277,6.0,9.0,46,0.00,,,0.00,WUHU216DAVISVP2,2013-01-15 20:34:00,
2013-01-15 14:39:00,27.2,8.5,30.23,SSW,210,5.0,9.0,45,0.00,,,0.00,WUHU216DAVISVP2,2013-01-15 20:39:00,
2013-01-15 14:44:00,27.4,9.2,30.23,West,261,2.0,8.0,46,0.00,,,0.00,WUHU216DAVISVP2,2013-01-15 20:44:00,
2013-01-15 14:49:00,27.5,9.3,30.23,WSW,244,3.0,9.0,46,0.00,,,0.00,WUHU216DAVISVP2,2013-01-15 20:49:00,
2013-01-15 14:54:00,27.4,9.7,30.23,West,272,6.0,9.0,47,0.00,,,0.00,WUHU216DAVISVP2,2013-01-15 20:54:00,
2013-01-15 14:59:00,27.4,9.7,30.23,West,265,6.0,9.0,47,0.00,,,0.00,WUHU216DAVISVP2,2013-01-15 20:59:00,
2013-01-15 15:04:00,27.5,10.3,30.22,SW,222,7.0,9.0,48,0.00,,,0.00,WUHU216DAVISVP2,2013-01-15 21:04:00,
2013-01-15 15:09:00,27.6,11.8,30.23,SW,224,4.0,9.0,51,0.00,,,0.00,WUHU216DAVISVP2,2013-01-15 21:09:00,
2013-01-15 15:14:00,27.6,11.8,30.22,WSW,241,3.0,9.0,51,0.00,,,0.00,WUHU216DAVISVP2,2013-01-15 21:14:00,
2013-01-15 15:19:00,27.6,12.3,30.23,SSW,202,7.0,9.0,52,0.00,,,0.00,WUHU216DAVISVP2,2013-01-15 21:19:00,
2013-01-15 15:24:00,27.7,12.3,30.23,SSW,203,2.0,9.0,52,0.00,,,0.00,WUHU216DAVISVP2,2013-01-15 21:24:00,
2013-01-15 15:29:00,27.8,12.4,30.23,SSW,198,0.0,9.0,52,0.00,,,0.00,WUHU216DAVISVP2,2013-01-15 21:29:00,
2013-01-15 15:34:00,28.2,13.2,30.23,SSW,210,7.0,9.0,53,0.00,,,0.00,WUHU216DAVISVP2,2013-01-15 21:34:00,
2013-01-15 15:39:00,28.3,12.4,30.24,SSW,210,3.0,9.0,51,0.00,,,0.00,WUHU216DAVISVP2,2013-01-15 21:39:00,
2013-01-15 15:44:00,28.2,12.3,30.25,SW,222,6.0,9.0,51,0.00,,,0.00,WUHU216DAVISVP2,2013-01-15 21:44:00,
2013-01-15 15:49:00,28.1,12.7,30.24,SSW,207,6.0,9.0,52,0.00,,,0.00,WUHU216DAVISVP2,2013-01-15 21:49:00,
2013-01-15 15:54:00,28.0,12.6,30.25,SW,214,4.0,9.0,52,0.00,,,0.00,WUHU216DAVISVP2,2013-01-15 21:54:00,
2013-01-15 15:59:00,28.1,13.1,30.25,SSW,212,8.0,9.0,53,0.00,,,0.00,WUHU216DAVISVP2,2013-01-15 21:59:00,
2013-01-15 16:04:00,28.1,14.0,30.25,SW,224,4.0,9.0,55,0.00,,,0.00,WUHU216DAVISVP2,2013-01-15 22:04:00,
2013-01-15 16:09:00,28.0,17.1,30.25,SSW,194,7.0,9.0,63,0.00,,,0.00,WUHU216DAVISVP2,2013-01-15 22:09:00,
2013-01-15 16:14:00,27.8,17.6,30.25,South,181,2.0,9.0,65,0.00,,,0.00,WUHU216DAVISVP2,2013-01-15 22:14:00,
2013-01-15 16:19:00,27.7,17.9,30.25,SSW,205,2.0,9.0,66,0.00,,,0.00,WUHU216DAVISVP2,2013-01-15 22:19:00,
2013-01-15 16:24:00,27.8,18.0,30.25,SSW,203,3.0,10.0,66,0.00,,,0.00,WUHU216DAVISVP2,2013-01-15 22:24:00,
2013-01-15 16:29:00,27.9,18.0,30.25,SSW,193,6.0,10.0,66,0.00,,,0.00,WUHU216DAVISVP2,2013-01-15 22:29:00,
2013-01-15 16:34:00,28.0,18.2,30.25,SSW,200,2.0,10.0,66,0.00,,,0.00,WUHU216DAVISVP2,2013-01-15 22:34:00,
2013-01-15 16:39:00,27.9,18.5,30.25,SSW,200,1.0,10.0,67,0.00,,,0.00,WUHU216DAVISVP2,2013-01-15 22:39:00,
2013-01-15 16:44:00,28.0,18.2,30.25,SW,218,7.0,9.0,66,0.00,,,0.00,WUHU216DAVISVP2,2013-01-15 22:44:00,
2013-01-15 16:49:00,28.1,18.3,30.25,SSW,210,3.0,9.0,66,0.00,,,0.00,WUHU216DAVISVP2,2013-01-15 22:49:00,
2013-01-15 16:54:00,28.2,18.3,30.25,SSW,210,5.0,8.0,66,0.00,,,0.00,WUHU216DAVISVP2,2013-01-15 22:54:00,
2013-01-15 16:59:00,28.3,18.5,30.25,SSW,210,5.0,8.0,66,0.00,,,0.00,WUHU216DAVISVP2,2013-01-15 22:59:00,
2013-01-15 17:04:00,28.4,18.9,30.25,SSW,210,3.0,7.0,67,0.00,,,0.00,WUHU216DAVISVP2,2013-01-15 23:04:00,
2013-01-15 17:09:00,28.5,19.0,30.25,SSW,210,4.0,7.0,67,0.00,,,0.00,WUHU216DAVISVP2,2013-01-15 23:09:00,
2013-01-15 17:14:00,28.6,19.4,30.24,SSW,210,4.0,7.0,68,0.00,,,0.00,WUHU216DAVISVP2,2013-01-15 23:14:00,
2013-01-15 17:19:00,28.6,19.5,30.24,SSW,210,1.0,7.0,68,0.00,,,0.00,WUHU216DAVISVP2,2013-01-15 23:19:00,
2013-01-15 17:24:00,28.8,19.6,30.24,SSW,210,2.0,7.0,68,0.00,,,0.00,WUHU216DAVISVP2,2013-01-15 23:24:00,
2013-01-15 17:29:00,28.9,18.0,30.24,SW,233,4.0,7.0,63,0.00,,,0.00,WUHU216DAVISVP2,2013-01-15 23:29:00,
2013-01-15 17:34:00,29.1,17.8,30.24,SW,230,5.0,7.0,62,0.00,,,0.00,WUHU216DAVISVP2,2013-01-15 23:34:00,
2013-01-15 17:39:00,29.3,17.9,30.24,SW,230,2.0,7.0,62,0.00,,,0.00,WUHU216DAVISVP2,2013-01-15 23:39:00,
2013-01-15 17:44:00,29.4,18.8,30.25,SW,230,2.0,7.0,64,0.00,,,0.00,WUHU216DAVISVP2,2013-01-15 23:44:00,
2013-01-15 17:49:00,29.6,19.7,30.24,SW,230,0.0,6.0,66,0.00,,,0.00,WUHU216DAVISVP2,2013-01-15 23:49:00,
2013-01-15 17:54:00,29.7,20.9,30.24,SW,229,1.0,6.0,69,0.00,,,0.00,WUHU216DAVISVP2,2013-01-15 23:54:00,
2013-01-15 17:59:00,29.7,21.2,30.25,SW,228,2.0,5.0,70,0.00,,,0.00,WUHU216DAVISVP2,2013-01-15 23:59:00,
2013-01-15 18:04:00,29.5,21.3,30.25,SW,228,1.0,4.0,71,0.00,,,0.00,WUHU216DAVISVP2,2013-01-16 00:04:00,
2013-01-15 18:09:00,29.3,21.5,30.25,SW,228,0.0,4.0,72,0.00,,,0.00,WUHU216DAVISVP2,2013-01-16 00:09:00,
2013-01-15 18:14:00,29.1,21.9,30.25,South,187,3.0,4.0,74,0.00,,,0.00,WUHU216DAVISVP2,2013-01-16 00:14:00,
2013-01-15 18:19:00,28.8,22.2,30.25,South,175,6.0,6.0,76,0.00,,,0.00,WUHU216DAVISVP2,2013-01-16 00:19:00,
2013-01-15 18:24:00,28.5,21.9,30.25,South,176,2.0,7.0,76,0.00,,,0.00,WUHU216DAVISVP2,2013-01-16 00:24:00,
2013-01-15 18:29:00,28.2,21.9,30.25,South,177,4.0,7.0,77,0.00,,,0.00,WUHU216DAVISVP2,2013-01-16 00:29:00,
2013-01-15 18:34:00,27.9,22.0,30.24,South,179,6.0,7.0,78,0.00,,,0.00,WUHU216DAVISVP2,2013-01-16 00:34:00,
2013-01-15 18:39:00,27.7,22.1,30.25,South,180,0.0,7.0,79,0.00,,,0.00,WUHU216DAVISVP2,2013-01-16 00:39:00,
2013-01-15 18:44:00,27.5,21.8,30.24,South,172,3.0,7.0,79,0.00,,,0.00,WUHU216DAVISVP2,2013-01-16 00:44:00,
2013-01-15 18:49:00,27.2,21.9,30.24,South,174,3.0,7.0,80,0.00,,,0.00,WUHU216DAVISVP2,2013-01-16 00:49:00,
2013-01-15 18:54:00,27.0,21.7,30.25,South,174,3.0,7.0,80,0.00,,,0.00,WUHU216DAVISVP2,2013-01-16 00:54:00,
2013-01-15 18:59:00,26.9,21.5,30.25,South,174,1.0,7.0,80,0.00,,,0.00,WUHU216DAVISVP2,2013-01-16 00:59:00,
2013-01-15 19:04:00,26.7,21.4,30.25,South,174,2.0,6.0,80,0.00,,,0.00,WUHU216DAVISVP2,2013-01-16 01:04:00,
2013-01-15 19:09:00,26.6,21.3,30.25,South,175,2.0,7.0,80,0.00,,,0.00,WUHU216DAVISVP2,2013-01-16 01:09:00,
2013-01-15 19:14:00,26.4,21.1,30.26,South,173,3.0,8.0,80,0.00,,,0.00,WUHU216DAVISVP2,2013-01-16 01:14:00,
2013-01-15 19:19:00,26.3,21.3,30.26,South,173,2.0,8.0,81,0.00,,,0.00,WUHU216DAVISVP2,2013-01-16 01:19:00,
2013-01-15 19:24:00,26.3,21.5,30.26,South,170,4.0,8.0,82,0.00,,,0.00,WUHU216DAVISVP2,2013-01-16 01:24:00,
2013-01-15 19:29:00,26.0,21.6,30.26,SSE,166,5.0,8.0,83,0.00,,,0.00,WUHU216DAVISVP2,2013-01-16 01:29:00,
2013-01-15 19:34:00,25.8,21.3,30.26,SSE,160,2.0,8.0,83,0.00,,,0.00,WUHU216DAVISVP2,2013-01-16 01:34:00,
2013-01-15 19:39:00,25.7,21.2,30.26,South,170,2.0,8.0,83,0.00,,,0.00,WUHU216DAVISVP2,2013-01-16 01:39:00,
2013-01-15 19:44:00,25.4,21.0,30.26,South,176,3.0,8.0,83,0.00,,,0.00,WUHU216DAVISVP2,2013-01-16 01:44:00,
2013-01-15 19:49:00,25.2,20.7,30.25,SSE,168,5.0,9.0,83,0.00,,,0.00,WUHU216DAVISVP2,2013-01-16 01:49:00,
2013-01-15 19:54:00,25.1,20.6,30.25,SSE,167,8.0,9.0,83,0.00,,,0.00,WUHU216DAVISVP2,2013-01-16 01:54:00,
2013-01-15 19:59:00,24.8,20.7,30.25,South,180,1.0,9.0,84,0.00,,,0.00,WUHU216DAVISVP2,2013-01-16 01:59:00,
2013-01-15 20:04:00,24.7,20.5,30.25,South,187,5.0,9.0,84,0.00,,,0.00,WUHU216DAVISVP2,2013-01-16 02:04:00,
2013-01-15 20:09:00,24.5,20.3,30.25,South,177,3.0,9.0,84,0.00,,,0.00,WUHU216DAVISVP2,2013-01-16 02:09:00,
2013-01-15 20:14:00,24.3,20.2,30.24,South,176,5.0,8.0,84,0.00,,,0.00,WUHU216DAVISVP2,2013-01-16 02:14:00,
2013-01-15 20:19:00,24.1,19.9,30.24,South,178,1.0,8.0,84,0.00,,,0.00,WUHU216DAVISVP2,2013-01-16 02:19:00,
2013-01-15 20:24:00,24.0,20.1,30.24,South,178,4.0,8.0,85,0.00,,,0.00,WUHU216DAVISVP2,2013-01-16 02:24:00,
2013-01-15 20:29:00,23.7,19.9,30.24,South,178,0.0,7.0,85,0.00,,,0.00,WUHU216DAVISVP2,2013-01-16 02:29:00,
2013-01-15 20:34:00,23.5,19.6,30.24,South,178,2.0,7.0,85,0.00,,,0.00,WUHU216DAVISVP2,2013-01-16 02:34:00,
2013-01-15 20:39:00,23.4,19.5,30.24,South,178,1.0,7.0,85,0.00,,,0.00,WUHU216DAVISVP2,2013-01-16 02:39:00,
2013-01-15 20:44:00,23.1,19.3,30.24,South,179,0.0,7.0,85,0.00,,,0.00,WUHU216DAVISVP2,2013-01-16 02:44:00,
2013-01-15 20:49:00,23.1,19.5,30.24,South,179,0.0,7.0,86,0.00,,,0.00,WUHU216DAVISVP2,2013-01-16 02:49:00,
2013-01-15 20:54:00,22.9,19.3,30.23,South,179,0.0,7.0,86,0.00,,,0.00,WUHU216DAVISVP2,2013-01-16 02:54:00,
2013-01-15 20:59:00,22.8,19.2,30.23,South,179,2.0,4.0,86,0.00,,,0.00,WUHU216DAVISVP2,2013-01-16 02:59:00,
2013-01-15 21:04:00,22.5,18.9,30.24,South,179,2.0,5.0,86,0.00,,,0.00,WUHU216DAVISVP2,2013-01-16 03:04:00,
2013-01-15 21:09:00,22.4,19.1,30.23,South,179,0.0,5.0,87,0.00,,,0.00,WUHU216DAVISVP2,2013-01-16 03:09:00,
2013-01-15 21:14:00,22.3,19.0,30.23,South,179,2.0,5.0,87,0.00,,,0.00,WUHU216DAVISVP2,2013-01-16 03:14:00,
2013-01-15 21:19:00,22.0,18.7,30.22,South,179,2.0,5.0,87,0.00,,,0.00,WUHU216DAVISVP2,2013-01-16 03:19:00,
2013-01-15 21:24:00,21.9,18.6,30.22,South,179,2.0,5.0,87,0.00,,,0.00,WUHU216DAVISVP2,2013-01-16 03:24:00,
2013-01-15 21:29:00,21.8,18.5,30.22,South,179,1.0,5.0,87,0.00,,,0.00,WUHU216DAVISVP2,2013-01-16 03:29:00,
2013-01-15 21:34:00,21.7,18.4,30.22,South,179,3.0,5.0,87,0.00,,,0.00,WUHU216DAVISVP2,2013-01-16 03:34:00,
2013-01-15 21:39:00,21.5,18.2,30.21,South,179,2.0,5.0,87,0.00,,,0.00,WUHU216DAVISVP2,2013-01-16 03:39:00,
2013-01-15 21:44:00,21.4,18.1,30.21,South,179,1.0,5.0,87,0.00,,,0.00,WUHU216DAVISVP2,2013-01-16 03:44:00,
2013-01-15 21:49:00,21.4,18.1,30.21,South,179,0.0,5.0,87,0.00,,,0.00,WUHU216DAVISVP2,2013-01-16 03:49:00,
2013-01-15 21:54:00,21.4,18.1,30.22,South,179,2.0,4.0,87,0.00,,,0.00,WUHU216DAVISVP2,2013-01-16 03:54:00,
2013-01-15 21:59:00,21.2,17.9,30.22,South,179,0.0,3.0,87,0.00,,,0.00,WUHU216DAVISVP2,2013-01-16 03:59:00,
2013-01-15 22:04:00,21.2,17.9,30.23,South,179,0.0,3.0,87,0.00,,,0.00,WUHU216DAVISVP2,2013-01-16 04:04:00,
2013-01-15 22:09:00,21.1,17.8,30.23,South,179,0.0,3.0,87,0.00,,,0.00,WUHU216DAVISVP2,2013-01-16 04:09:00,
2013-01-15 22:14:00,21.0,17.7,30.23,South,179,0.0,1.0,87,0.00,,,0.00,WUHU216DAVISVP2,2013-01-16 04:14:00,
2013-01-15 22:19:00,20.8,17.6,30.23,South,179,0.0,0.0,87,0.00,,,0.00,WUHU216DAVISVP2,2013-01-16 04:19:00,
2013-01-15 22:24:00,20.7,17.4,30.22,South,179,0.0,0.0,87,0.00,,,0.00,WUHU216DAVISVP2,2013-01-16 04:24:00,
2013-01-15 22:29:00,20.6,17.3,30.22,South,179,0.0,0.0,87,0.00,,,0.00,WUHU216DAVISVP2,2013-01-16 04:29:00,
2013-01-15 22:34:00,20.3,17.0,30.22,South,179,0.0,0.0,87,0.00,,,0.00,WUHU216DAVISVP2,2013-01-16 04:34:00,
2013-01-15 22:39:00,20.0,16.7,30.22,South,179,0.0,0.0,87,0.00,,,0.00,WUHU216DAVISVP2,2013-01-16 04:39:00,
2013-01-15 22:44:00,19.8,16.7,30.22,South,179,0.0,0.0,88,0.00,,,0.00,WUHU216DAVISVP2,2013-01-16 04:44:00,
2013-01-15 22:49:00,19.5,16.5,30.22,South,179,0.0,0.0,88,0.00,,,0.00,WUHU216DAVISVP2,2013-01-16 04:49:00,
2013-01-15 22:54:00,19.5,16.5,30.22,South,179,0.0,0.0,88,0.00,,,0.00,WUHU216DAVISVP2,2013-01-16 04:54:00,
2013-01-15 22:59:00,19.6,16.8,30.22,South,179,0.0,0.0,89,0.00,,,0.00,WUHU216DAVISVP2,2013-01-16 04:59:00,
2013-01-15 23:00:00,19.6,16.8,30.22,South,179,0.0,0.0,89,0.00,,,0.00,WUHU216DAVISVP2,2013-01-16 05:00:00,
2013-01-15 23:05:00,19.7,16.9,30.23,South,179,0.0,0.0,89,0.00,,,0.00,WUHU216DAVISVP2,2013-01-16 05:05:00,
2013-01-15 23:10:00,19.7,16.9,30.23,South,179,0.0,0.0,89,0.00,,,0.00,WUHU216DAVISVP2,2013-01-16 05:10:00,
2013-01-15 23:15:00,19.6,16.5,30.22,South,179,0.0,0.0,88,0.00,,,0.00,WUHU216DAVISVP2,2013-01-16 05:15:00,
2013-01-15 23:20:00,19.3,16.3,30.22,South,179,0.0,0.0,88,0.00,,,0.00,WUHU216DAVISVP2,2013-01-16 05:20:00,
2013-01-15 23:25:00,19.2,16.2,30.21,South,179,0.0,0.0,88,0.00,,,0.00,WUHU216DAVISVP2,2013-01-16 05:25:00,
2013-01-15 23:30:00,19.2,16.5,30.21,South,179,0.0,0.0,89,0.00,,,0.00,WUHU216DAVISVP2,2013-01-16 05:30:00,
2013-01-15 23:35:00,19.2,16.4,30.22,South,179,0.0,3.0,89,0.00,,,0.00,WUHU216DAVISVP2,2013-01-16 05:35:00,
2013-01-15 23:40:00,19.2,16.4,30.22,South,179,1.0,3.0,89,0.00,,,0.00,WUHU216DAVISVP2,2013-01-16 05:40:00,
2013-01-15 23:45:00,19.2,16.4,30.21,South,179,0.0,3.0,89,0.00,,,0.00,WUHU216DAVISVP2,2013-01-16 05:45:00,
2013-01-15 23:50:00,19.2,16.4,30.21,South,179,0.0,3.0,89,0.00,,,0.00,WUHU216DAVISVP2,2013-01-16 05:50:00,
2013-01-15 23:55:00,19.1,16.3,30.21,South,179,0.0,2.0,89,0.00,,,0.00,WUHU216DAVISVP2,2013-01-16 05:55:00,